Terminal Aerodrome Forecast
Issued by NWS

Home | Current Version | Previous Version | Text Only | Print | Product List | Glossary On
Versions: 1 2 3 4 5 6 7 8 9 10 11 12 13 14 15 16 17 18 19 20 21 22 23 24 25 26 27 28 29 30 31 32 33 34
094
FTUS41 KOKX 160840 AAA
TAFGON
TAF AMD
KGON 160840Z 1609/1706 28010KT P6SM FEW250
     FM161400 28015G23KT P6SM SCT040 SCT200
     FM161600 28017G26KT P6SM BKN040 BKN120
     FM162100 28013KT P6SM VCSH BKN040 BKN120
     FM170000 30010KT P6SM BKN050
     FM170400 33007KT P6SM SCT050=

USA.gov is the U.S. government's official web portal to all federal, state and local government web resources and services.